createdAt,value
2023-03-19T00:01:15.050Z,39.93
2023-03-19T00:03:45.829Z,39.91
2023-03-19T00:06:14.488Z,39.78
2023-03-19T00:08:43.211Z,39.72
2023-03-19T00:11:12.792Z,39.88
2023-03-19T00:13:41.575Z,39.86
2023-03-19T00:16:09.982Z,39.89
2023-03-19T00:18:38.781Z,39.94
2023-03-19T00:21:07.361Z,39.97
2023-03-19T00:23:36.983Z,39.89
2023-03-19T00:26:05.560Z,39.86
2023-03-19T00:28:34.346Z,39.82
2023-03-19T00:31:14.482Z,39.94
2023-03-19T00:33:43.451Z,39.83
2023-03-19T00:36:12.156Z,40.00
2023-03-19T00:38:42.312Z,39.91
2023-03-19T00:41:11.035Z,39.76
2023-03-19T00:43:39.847Z,39.98
2023-03-19T00:46:08.104Z,39.84
2023-03-19T00:48:36.795Z,39.90
2023-03-19T00:51:09.770Z,39.84
2023-03-19T00:53:43.534Z,39.90
2023-03-19T00:56:13.753Z,39.93
2023-03-19T00:58:42.502Z,39.96
2023-03-19T01:01:12.992Z,39.99
2023-03-19T01:03:42.223Z,39.93
2023-03-19T01:06:10.721Z,39.86
2023-03-19T01:08:39.341Z,40.01
2023-03-19T01:11:14.547Z,40.04
2023-03-19T01:13:43.441Z,40.05
2023-03-19T01:16:11.818Z,39.97
2023-03-19T01:18:40.886Z,39.99
2023-03-19T01:21:09.285Z,39.86
2023-03-19T01:23:44.448Z,39.87
2023-03-19T01:26:13.268Z,39.88
2023-03-19T01:28:43.619Z,39.91
2023-03-19T01:31:12.860Z,40.18
2023-03-19T01:33:42.910Z,39.89
2023-03-19T01:36:17.368Z,40.17
2023-03-19T01:38:58.211Z,39.90
2023-03-19T01:41:26.728Z,40.03
2023-03-19T01:43:59.551Z,39.97
2023-03-19T01:46:41.480Z,40.01
2023-03-19T01:49:36.737Z,39.84
2023-03-19T01:52:19.441Z,40.05
2023-03-19T01:55:14.218Z,39.90
2023-03-19T01:57:51.397Z,39.69
2023-03-19T02:00:38.457Z,39.98
2023-03-19T02:03:07.410Z,39.84
2023-03-19T02:05:36.856Z,39.79
2023-03-19T02:08:11.617Z,39.69
2023-03-19T02:10:41.677Z,39.71
2023-03-19T02:13:10.087Z,39.70
2023-03-19T02:15:38.944Z,39.71
2023-03-19T02:18:08.479Z,39.80
2023-03-19T02:21:06.296Z,39.64
2023-03-19T02:23:56.343Z,39.76
2023-03-19T02:26:43.605Z,39.85
2023-03-19T02:29:12.164Z,39.69
2023-03-19T02:31:41.664Z,39.63
2023-03-19T02:34:10.161Z,39.50
2023-03-19T02:36:49.434Z,39.76
2023-03-19T02:39:26.425Z,39.75
2023-03-19T02:41:55.188Z,39.65
2023-03-19T02:44:26.577Z,39.64
2023-03-19T02:46:55.440Z,39.68
2023-03-19T02:49:25.104Z,39.71
2023-03-19T02:51:53.852Z,39.83
2023-03-19T02:54:22.184Z,39.69
2023-03-19T02:56:52.779Z,39.84
2023-03-19T02:59:21.694Z,39.90
2023-03-19T03:01:51.135Z,39.99
2023-03-19T03:04:19.580Z,39.98
2023-03-19T03:06:48.440Z,39.94
2023-03-19T03:09:17.337Z,39.85
2023-03-19T03:11:46.290Z,40.08
2023-03-19T03:14:14.660Z,40.16
2023-03-19T03:16:43.489Z,40.11
2023-03-19T03:19:12.349Z,40.20
2023-03-19T03:21:41.463Z,40.22
2023-03-19T03:24:10.020Z,40.15
2023-03-19T03:26:39.300Z,40.23
2023-03-19T03:29:07.869Z,40.10
2023-03-19T03:31:36.802Z,40.10
2023-03-19T03:34:05.232Z,40.19
2023-03-19T03:36:34.065Z,40.06
2023-03-19T03:39:02.472Z,40.12
2023-03-19T03:41:31.741Z,40.32
2023-03-19T03:44:00.152Z,40.25
2023-03-19T03:46:29.150Z,40.27
2023-03-19T03:48:58.212Z,40.29
2023-03-19T03:51:26.991Z,40.66
2023-03-19T03:53:55.393Z,40.24
2023-03-19T03:56:24.054Z,40.35
2023-03-19T03:58:52.632Z,40.43
2023-03-19T04:01:21.622Z,40.20
2023-03-19T04:03:55.261Z,40.51
2023-03-19T04:06:24.610Z,40.42
2023-03-19T04:09:17.402Z,40.34
2023-03-19T04:11:46.273Z,40.22
2023-03-19T04:14:15.692Z,40.37
2023-03-19T04:16:44.612Z,40.70
2023-03-19T04:19:14.549Z,40.24
2023-03-19T04:21:43.215Z,40.38
2023-03-19T04:24:11.786Z,40.75
2023-03-19T04:26:40.963Z,40.54
2023-03-19T04:29:09.680Z,40.35
2023-03-19T04:31:39.449Z,40.55
2023-03-19T04:34:08.172Z,40.53
2023-03-19T04:36:36.949Z,40.36
2023-03-19T04:39:06.072Z,40.51
2023-03-19T04:41:35.548Z,40.36
2023-03-19T04:44:22.174Z,40.59
2023-03-19T04:46:50.998Z,40.57
2023-03-19T04:49:21.758Z,40.33
2023-03-19T04:51:52.738Z,40.34
2023-03-19T04:54:21.271Z,40.58
2023-03-19T04:56:50.537Z,40.45
2023-03-19T04:59:23.089Z,40.57
2023-03-19T05:01:53.028Z,40.56
2023-03-19T05:04:25.207Z,40.55
2023-03-19T05:06:58.498Z,40.51
2023-03-19T05:09:26.809Z,40.60
2023-03-19T05:11:56.767Z,40.48
2023-03-19T05:14:25.599Z,40.48
2023-03-19T05:17:11.378Z,40.63
2023-03-19T05:20:00.038Z,40.40
2023-03-19T05:22:29.097Z,40.50
2023-03-19T05:24:58.830Z,40.57
2023-03-19T05:27:29.167Z,40.58
2023-03-19T05:30:07.009Z,40.65
2023-03-19T05:33:00.147Z,40.66
2023-03-19T05:35:41.423Z,40.64
2023-03-19T05:38:20.952Z,40.63
2023-03-19T05:40:56.377Z,40.77
2023-03-19T05:43:37.824Z,40.77
2023-03-19T05:46:10.205Z,40.87
2023-03-19T05:48:39.407Z,40.83
2023-03-19T05:51:09.495Z,40.68
2023-03-19T05:53:42.657Z,40.85
2023-03-19T05:56:46.180Z,40.89
2023-03-19T05:59:41.005Z,41.23
2023-03-19T06:02:28.024Z,40.92
2023-03-19T06:05:12.603Z,40.87
2023-03-19T06:07:41.104Z,41.07
2023-03-19T06:10:16.652Z,40.99
2023-03-19T06:12:44.980Z,40.98
2023-03-19T06:15:22.944Z,40.96
2023-03-19T06:18:08.844Z,40.81
2023-03-19T06:20:37.828Z,40.79
2023-03-19T06:23:06.717Z,40.97
2023-03-19T06:25:36.125Z,41.04
2023-03-19T06:28:05.932Z,41.11
2023-03-19T06:30:40.264Z,41.05
2023-03-19T06:33:32.469Z,41.12
2023-03-19T06:36:02.058Z,41.05
2023-03-19T06:38:33.758Z,41.19
2023-03-19T06:41:02.852Z,41.05
2023-03-19T06:43:32.419Z,40.90
2023-03-19T06:46:01.684Z,41.14
2023-03-19T06:48:30.356Z,40.95
2023-03-19T06:50:59.402Z,41.32
2023-03-19T06:53:28.334Z,41.21
2023-03-19T06:55:57.259Z,41.14
2023-03-19T06:58:25.941Z,41.07
2023-03-19T07:00:54.655Z,41.02
2023-03-19T07:03:23.379Z,41.24
2023-03-19T07:05:52.359Z,40.96
2023-03-19T07:08:20.820Z,41.17
2023-03-19T07:10:49.717Z,41.06
2023-03-19T07:13:18.108Z,41.19
2023-03-19T07:15:47.558Z,41.24
2023-03-19T07:23:39.539Z,41.59
2023-03-19T07:26:08.490Z,41.65
2023-03-19T07:28:36.940Z,41.77
2023-03-19T07:31:07.312Z,41.72
2023-03-19T07:33:36.323Z,41.54
2023-03-19T07:36:06.170Z,41.69
2023-03-19T07:38:34.468Z,41.89
2023-03-19T07:41:04.093Z,42.06
2023-03-19T07:43:32.469Z,42.62
2023-03-19T07:46:01.447Z,43.72
2023-03-19T07:48:30.126Z,44.53
2023-03-19T07:50:58.941Z,46.00
2023-03-19T07:53:27.381Z,46.54
2023-03-19T07:55:56.616Z,46.97
2023-03-19T07:58:25.211Z,47.67
2023-03-19T08:00:54.666Z,48.80
2023-03-19T08:03:23.096Z,49.60
2023-03-19T08:05:52.661Z,50.73
2023-03-19T08:08:21.207Z,51.23
2023-03-19T08:10:51.042Z,51.13
2023-03-19T08:13:19.676Z,50.74
2023-03-19T08:15:50.375Z,50.72
2023-03-19T08:18:19.049Z,50.33
2023-03-19T08:20:47.960Z,49.84
2023-03-19T08:23:17.663Z,49.93
2023-03-19T08:25:46.417Z,50.29
2023-03-19T08:28:14.884Z,49.72
2023-03-19T08:30:43.595Z,49.24
2023-03-19T08:33:12.226Z,48.61
2023-03-19T08:35:41.652Z,48.01
2023-03-19T08:38:10.661Z,47.33
2023-03-19T08:40:39.393Z,46.73
2023-03-19T08:43:07.995Z,46.27
2023-03-19T08:45:37.415Z,46.17
2023-03-19T08:48:05.917Z,45.88
2023-03-19T08:50:35.100Z,45.68
2023-03-19T08:53:03.807Z,45.88
2023-03-19T08:55:32.655Z,45.65
2023-03-19T08:58:01.279Z,46.29
2023-03-19T09:00:30.057Z,46.28
2023-03-19T09:02:58.651Z,45.80
2023-03-19T09:05:29.713Z,45.47
2023-03-19T09:07:58.406Z,45.08
2023-03-19T09:10:27.212Z,44.64
2023-03-19T09:12:55.872Z,44.50
2023-03-19T09:15:25.001Z,44.36
2023-03-19T09:17:53.425Z,44.48
2023-03-19T09:20:22.165Z,44.50
2023-03-19T09:22:50.753Z,43.91
2023-03-19T09:25:19.656Z,43.89
2023-03-19T09:27:49.450Z,43.99
2023-03-19T09:30:18.208Z,44.01
2023-03-19T09:32:46.701Z,43.89
2023-03-19T09:35:16.121Z,44.03
2023-03-19T09:37:44.613Z,43.85
2023-03-19T09:40:42.130Z,43.77
2023-03-19T09:43:49.582Z,43.84
2023-03-19T09:46:22.886Z,43.55
2023-03-19T09:49:41.567Z,43.70
2023-03-19T09:53:17.403Z,43.55
2023-03-19T09:55:52.646Z,43.65
2023-03-19T09:58:47.942Z,43.52
2023-03-19T10:01:37.417Z,43.52
2023-03-19T10:04:28.085Z,43.42
2023-03-19T10:07:12.861Z,43.41
2023-03-19T10:10:15.244Z,43.21
2023-03-19T10:12:48.998Z,43.20
2023-03-19T10:15:33.189Z,43.06
2023-03-19T10:18:36.957Z,43.04
2023-03-19T10:21:16.409Z,43.04
2023-03-19T10:24:00.655Z,42.85
2023-03-19T10:26:34.705Z,42.77
2023-03-19T10:29:18.991Z,42.62
2023-03-19T10:32:19.166Z,42.86
2023-03-19T10:34:54.089Z,42.36
2023-03-19T10:37:28.691Z,42.53
2023-03-19T10:39:59.279Z,42.24
2023-03-19T10:43:11.350Z,42.23
2023-03-19T10:45:39.887Z,42.09
2023-03-19T10:48:13.114Z,41.92
2023-03-19T10:50:54.070Z,41.95
2023-03-19T10:53:35.339Z,41.82
2023-03-19T10:56:23.343Z,41.57
2023-03-19T10:58:59.027Z,41.85
2023-03-19T11:01:39.991Z,41.69
2023-03-19T11:04:22.801Z,41.51
2023-03-19T11:07:02.618Z,41.65
2023-03-19T11:09:47.048Z,41.41
2023-03-19T11:12:35.112Z,41.50
2023-03-19T11:15:06.924Z,41.54
2023-03-19T11:18:20.034Z,41.52
2023-03-19T11:21:30.622Z,41.33
2023-03-19T11:24:03.443Z,41.44
2023-03-19T11:26:32.721Z,41.52
2023-03-19T11:29:05.195Z,41.55
2023-03-19T11:31:54.722Z,41.51
2023-03-19T11:34:48.855Z,41.63
2023-03-19T11:37:44.753Z,40.68
2023-03-19T11:40:31.923Z,40.22
2023-03-19T11:43:17.894Z,40.29
2023-03-19T11:46:48.349Z,40.32
2023-03-19T11:49:51.050Z,40.32
2023-03-19T11:52:33.727Z,40.22
2023-03-19T11:55:42.619Z,40.24
2023-03-19T11:58:55.638Z,39.86
2023-03-19T12:02:23.756Z,40.04
2023-03-19T12:05:12.615Z,39.77
2023-03-19T12:08:33.496Z,39.48
2023-03-19T12:11:36.267Z,39.07
2023-03-19T12:14:16.858Z,39.03
2023-03-19T12:17:13.567Z,39.18
2023-03-19T12:20:04.535Z,39.27
2023-03-19T12:23:26.769Z,39.05
2023-03-19T12:26:09.055Z,39.10
2023-03-19T12:29:10.196Z,38.85
2023-03-19T12:32:05.490Z,39.04
2023-03-19T12:35:17.106Z,39.08
2023-03-19T12:38:39.222Z,39.04
2023-03-19T12:41:15.266Z,39.43
2023-03-19T12:44:02.036Z,40.38
2023-03-19T12:46:59.261Z,40.82
2023-03-19T12:49:36.484Z,40.96
2023-03-19T12:52:24.468Z,40.90
2023-03-19T12:55:13.464Z,40.71
2023-03-19T12:58:12.325Z,40.66
2023-03-19T13:01:12.656Z,40.20
2023-03-19T13:04:07.364Z,40.14
2023-03-19T13:07:02.283Z,39.98
2023-03-19T13:09:51.245Z,40.27
2023-03-19T13:12:32.362Z,40.82
2023-03-19T13:15:39.219Z,40.63
2023-03-19T13:18:33.590Z,40.54
2023-03-19T13:21:11.641Z,40.57
2023-03-19T13:23:40.393Z,40.66
2023-03-19T13:26:12.894Z,40.43
2023-03-19T13:29:27.726Z,40.12
2023-03-19T13:32:43.866Z,39.70
2023-03-19T13:35:46.826Z,40.27
2023-03-19T13:38:24.515Z,40.45
2023-03-19T13:40:57.654Z,40.37
2023-03-19T13:43:29.570Z,39.56
2023-03-19T13:46:12.392Z,39.52
2023-03-19T13:48:50.760Z,39.08
2023-03-19T13:51:19.235Z,38.89
2023-03-19T13:54:12.991Z,38.61
2023-03-19T13:57:18.777Z,38.06
2023-03-19T13:59:50.638Z,38.40
2023-03-19T14:02:22.160Z,38.59
2023-03-19T14:05:14.409Z,38.78
2023-03-19T14:07:44.078Z,39.05
2023-03-19T14:10:29.890Z,39.26
2023-03-19T14:13:08.643Z,39.67
2023-03-19T14:15:41.084Z,39.50
2023-03-19T14:18:14.538Z,39.96
2023-03-19T14:20:59.357Z,40.23
2023-03-19T14:23:39.633Z,40.26
2023-03-19T14:26:18.130Z,40.40
2023-03-19T14:28:50.358Z,40.70
2023-03-19T14:31:50.516Z,40.73
2023-03-19T14:34:42.048Z,40.64
2023-03-19T14:37:28.633Z,40.53
2023-03-19T14:40:14.914Z,40.67
2023-03-19T14:43:18.118Z,40.74
2023-03-19T14:46:05.310Z,41.03
2023-03-19T14:48:55.523Z,40.64
2023-03-19T14:51:58.768Z,40.48
2023-03-19T14:55:09.179Z,40.59
2023-03-19T14:57:37.846Z,40.70
2023-03-19T15:00:13.162Z,40.57
2023-03-19T15:02:50.241Z,40.59
2023-03-19T15:05:30.830Z,40.79
2023-03-19T15:08:08.059Z,40.82
2023-03-19T15:11:01.092Z,41.03
2023-03-19T15:14:39.105Z,41.24
2023-03-19T15:17:30.108Z,41.07
2023-03-19T15:20:02.319Z,41.18
2023-03-19T15:22:34.981Z,41.26
2023-03-19T15:25:16.494Z,41.47
2023-03-19T15:27:45.971Z,41.59
2023-03-19T15:30:24.826Z,41.77
2023-03-19T15:33:09.109Z,41.80
2023-03-19T15:35:41.244Z,42.07
2023-03-19T15:38:11.547Z,42.05
2023-03-19T15:40:40.999Z,42.18
2023-03-19T15:43:12.005Z,42.17
2023-03-19T15:45:42.148Z,42.24
2023-03-19T15:48:35.111Z,42.17
2023-03-19T15:51:04.249Z,42.13
2023-03-19T15:53:34.314Z,41.99
2023-03-19T15:56:03.791Z,42.28
2023-03-19T15:58:38.839Z,42.11
2023-03-19T16:01:08.615Z,42.04
2023-03-19T16:04:09.107Z,42.31
2023-03-19T16:06:42.259Z,42.10
2023-03-19T16:09:14.228Z,42.15
2023-03-19T16:11:44.352Z,41.98
2023-03-19T16:14:23.229Z,42.12
2023-03-19T16:16:52.616Z,42.38
2023-03-19T16:19:32.784Z,42.43
2023-03-19T16:22:01.747Z,42.81
2023-03-19T16:24:39.209Z,42.35
2023-03-19T16:27:12.787Z,42.52
2023-03-19T16:30:08.901Z,42.59
2023-03-19T16:32:37.573Z,42.89
2023-03-19T16:35:15.651Z,42.86
2023-03-19T16:37:45.058Z,42.94
2023-03-19T16:40:14.294Z,43.07
2023-03-19T16:42:51.218Z,43.00
2023-03-19T16:45:31.356Z,43.09
2023-03-19T16:48:03.700Z,43.00
2023-03-19T16:50:43.701Z,42.89
2023-03-19T16:53:23.005Z,42.96
2023-03-19T16:55:53.326Z,43.09
2023-03-19T16:58:42.899Z,43.09
2023-03-19T17:01:25.532Z,43.41
2023-03-19T17:03:54.309Z,43.14
2023-03-19T17:06:23.249Z,43.25
2023-03-19T17:08:51.798Z,43.27
2023-03-19T17:11:29.990Z,43.34
2023-03-19T17:13:59.244Z,43.16
2023-03-19T17:16:28.516Z,43.16
2023-03-19T17:18:57.248Z,43.26
2023-03-19T17:21:36.128Z,43.30
2023-03-19T17:24:29.635Z,43.15
2023-03-19T17:27:00.885Z,43.31
2023-03-19T17:29:30.653Z,43.04
2023-03-19T17:32:04.372Z,43.36
2023-03-19T17:34:33.333Z,43.38
2023-03-19T17:37:04.151Z,43.09
2023-03-19T17:39:33.065Z,43.24
2023-03-19T17:42:01.845Z,43.08
2023-03-19T17:44:30.257Z,43.03
2023-03-19T17:46:59.095Z,43.34
2023-03-19T17:49:29.451Z,43.36
2023-03-19T17:51:58.645Z,43.10
2023-03-19T17:54:27.451Z,43.43
2023-03-19T17:56:56.362Z,43.54
2023-03-19T17:59:24.872Z,43.44
2023-03-19T18:01:54.019Z,43.75
2023-03-19T18:04:22.695Z,43.81
2023-03-19T18:06:55.752Z,44.14
2023-03-19T18:09:27.157Z,44.09
2023-03-19T18:11:56.357Z,44.38
2023-03-19T18:14:25.003Z,44.36
2023-03-19T18:16:53.765Z,44.30
2023-03-19T18:19:32.967Z,44.62
2023-03-19T18:22:01.902Z,44.64
2023-03-19T18:24:30.477Z,44.58
2023-03-19T18:26:59.240Z,44.64
2023-03-19T18:29:27.666Z,44.45
2023-03-19T18:31:56.441Z,44.61
2023-03-19T18:34:25.032Z,44.59
2023-03-19T18:36:53.897Z,44.43
2023-03-19T18:39:22.361Z,44.51
2023-03-19T18:41:51.308Z,44.55
2023-03-19T18:44:19.876Z,44.49
2023-03-19T18:46:48.693Z,44.33
2023-03-19T18:49:22.347Z,44.43
2023-03-19T18:52:02.017Z,44.56
2023-03-19T18:54:32.103Z,44.66
2023-03-19T18:57:01.322Z,44.31
2023-03-19T18:59:32.905Z,44.27
2023-03-19T19:02:19.782Z,44.39
2023-03-19T19:04:48.739Z,44.71
2023-03-19T19:07:17.795Z,44.62
2023-03-19T19:09:46.529Z,45.13
2023-03-19T19:12:18.278Z,44.85
2023-03-19T19:14:47.459Z,45.06
2023-03-19T19:17:19.497Z,44.91
2023-03-19T19:19:48.021Z,45.06
2023-03-19T19:22:17.857Z,45.14
2023-03-19T19:24:46.449Z,45.17
2023-03-19T19:27:23.146Z,45.13
2023-03-19T19:29:51.675Z,45.53
2023-03-19T19:32:26.463Z,45.73
2023-03-19T19:34:55.136Z,45.71
2023-03-19T19:37:24.212Z,45.74
2023-03-19T19:39:52.843Z,46.15
2023-03-19T19:42:22.475Z,46.07
2023-03-19T19:44:54.827Z,46.32
2023-03-19T19:47:23.676Z,46.24
2023-03-19T19:49:52.132Z,46.47
2023-03-19T19:52:20.995Z,46.51
2023-03-19T19:54:51.945Z,46.67
2023-03-19T19:57:26.989Z,47.15
2023-03-19T19:59:55.846Z,47.16
2023-03-19T20:02:31.278Z,47.39
2023-03-19T20:05:00.028Z,47.25
2023-03-19T20:07:29.169Z,47.36
2023-03-19T20:09:57.799Z,47.36
2023-03-19T20:12:32.293Z,47.47
2023-03-19T20:15:01.738Z,47.55
2023-03-19T20:17:30.955Z,47.66
2023-03-19T20:19:59.478Z,47.76
2023-03-19T20:22:28.294Z,47.89
2023-03-19T20:24:57.892Z,47.92
2023-03-19T20:27:31.212Z,47.97
2023-03-19T20:29:59.793Z,47.82
2023-03-19T20:32:38.033Z,47.61
2023-03-19T20:35:17.553Z,47.97
2023-03-19T20:37:47.286Z,47.98
2023-03-19T20:40:16.190Z,47.65
2023-03-19T20:42:50.598Z,48.02
2023-03-19T20:45:34.665Z,48.01
2023-03-19T20:48:04.448Z,47.86
2023-03-19T20:50:33.734Z,48.01
2023-03-19T20:53:04.039Z,48.10
2023-03-19T20:55:45.247Z,47.91
2023-03-19T20:58:28.980Z,47.90
2023-03-19T21:00:58.767Z,48.04
2023-03-19T21:03:31.858Z,47.95
2023-03-19T21:06:04.457Z,47.94
2023-03-19T21:08:41.294Z,47.94
2023-03-19T21:11:22.335Z,47.90
2023-03-19T21:13:53.473Z,47.55
2023-03-19T21:16:25.515Z,47.80
2023-03-19T21:18:54.625Z,47.75
2023-03-19T21:21:35.524Z,47.82
2023-03-19T21:24:14.478Z,47.82
2023-03-19T21:26:43.242Z,47.75
2023-03-19T21:29:28.775Z,47.90
2023-03-19T21:31:58.152Z,47.85
2023-03-19T21:34:28.781Z,48.10
2023-03-19T21:36:57.540Z,47.97
2023-03-19T21:39:26.520Z,48.04
2023-03-19T21:41:55.115Z,47.99
2023-03-19T21:44:24.856Z,47.77
2023-03-19T21:46:53.532Z,47.92
2023-03-19T21:49:22.936Z,47.84
2023-03-19T21:51:51.626Z,48.01
2023-03-19T21:54:20.683Z,47.70
2023-03-19T21:56:49.462Z,47.56
2023-03-19T21:59:31.979Z,48.04
2023-03-19T22:02:01.766Z,47.82
2023-03-19T22:04:31.237Z,47.86
2023-03-19T22:06:59.873Z,48.02
2023-03-19T22:09:29.264Z,47.72
2023-03-19T22:11:58.052Z,47.65
2023-03-19T22:14:27.192Z,47.48
2023-03-19T22:16:56.600Z,47.32
2023-03-19T22:19:26.116Z,47.38
2023-03-19T22:21:55.723Z,47.23
2023-03-19T22:24:24.731Z,47.12
2023-03-19T22:26:57.385Z,46.79
2023-03-19T22:29:26.523Z,47.07
2023-03-19T22:31:57.889Z,47.08
2023-03-19T22:34:28.222Z,47.10
2023-03-19T22:36:56.867Z,47.00
2023-03-19T22:39:26.034Z,47.04
2023-03-19T22:41:54.819Z,46.91
2023-03-19T22:44:29.841Z,46.96
2023-03-19T22:46:59.734Z,47.11
2023-03-19T22:49:30.122Z,47.11
2023-03-19T22:51:58.903Z,47.07
2023-03-19T22:54:27.910Z,46.91
2023-03-19T22:56:56.614Z,47.06
2023-03-19T22:59:25.708Z,47.09
2023-03-19T23:01:54.427Z,47.16
2023-03-19T23:04:29.850Z,47.10
2023-03-19T23:06:59.464Z,47.28
2023-03-19T23:09:33.901Z,47.16
2023-03-19T23:12:03.371Z,47.34
2023-03-19T23:14:32.480Z,47.40
2023-03-19T23:17:03.991Z,47.46
2023-03-19T23:19:35.603Z,47.46
2023-03-19T23:22:05.842Z,47.43
2023-03-19T23:24:34.944Z,47.75
2023-03-19T23:27:03.956Z,47.84
2023-03-19T23:29:36.870Z,47.77
2023-03-19T23:32:06.197Z,47.91
2023-03-19T23:34:42.451Z,47.78
2023-03-19T23:37:11.277Z,47.92
2023-03-19T23:39:40.238Z,47.77
2023-03-19T23:42:10.195Z,48.05
2023-03-19T23:44:39.097Z,48.03
2023-03-19T23:47:08.832Z,47.94
2023-03-19T23:49:38.062Z,48.01
2023-03-19T23:52:06.724Z,47.96
2023-03-19T23:54:39.547Z,47.96
2023-03-19T23:57:11.723Z,47.86
2023-03-19T23:59:42.593Z,47.93
